AirNav   Everest Fuels
 
 904 users online  

76FL Health Central Heliport
Ocoee, Florida, USA

GOING TO OCOEE?


FAA INFORMATION EFFECTIVE 30 JANUARY 2020

Location

FAA Identifier: 76FL
Lat/Long: 28-33-02.0000N 081-31-41.0000W
28-33.033333N 081-31.683333W
28.5505556,-81.5280556
(estimated)
Elevation: 128 ft. / 39 m (estimated)
Variation: 04W (1995)
From city: 1 mile SE of OCOEE, FL
Time zone: UTC -5 (UTC -4 during Daylight Saving Time)
Zip code: 34761

Heliport Operations

Heliport use: Private use, MEDICAL USE.
Activation date: 06/1998
Control tower: no
ARTCC: JACKSONVILLE CENTER
FSS: SAINT PETERSBURG FLIGHT SERVICE STATION
Attendance: UNATNDD
Wind indicator: yes
Segmented circle: no

Heliport Communications

WX ASOS at ORL (10 nm E): PHONE 407-658-6753
WX ASOS at MCO (14 nm SE): PHONE 407-855-5235
WX AWOS-3PT at ISM (16 nm S): 128.775 (407-847-0533)

Nearby radio navigation aids

VOR radial/distance  VOR name  Freq  Var
ORLr273/10.2ORLANDO VORTAC112.2000E

Heliport Services

Runway Information

Helipad H1

Dimensions: 42 x 42 ft. / 13 x 13 m
Surface: concrete
Latitude: 28-33.031500N
Longitude: 081-31.636667W
Elevation: 128.0 ft.
Traffic pattern: leftleft

Heliport Ownership and Management from official FAA records

Ownership: Privately-owned
Owner: HEALTH CENTRAL
10000 WEST COLONIAL DRIVE
OCOEE, FL 34761
Phone (407) 296-1770
Manager: HEALTH CENTRAL
10000 WEST COLONIAL DRIVE
OCOEE, FL 34761
Phone (407) 296-1709

Heliport Operational Statistics

Aircraft based on the field: 2
Helicopters: 2
    

Additional Remarks

FOR CD CTC ORLANDO APCH AT 407-852-7553.

Instrument Procedures

There are no published instrument procedures at 76FL.

Some nearby airports with instrument procedures:

X04 - Orlando Apopka Airport (10 nm N)
KORL - Executive Airport (10 nm E)
KMCO - Orlando International Airport (14 nm SE)
KISM - Kissimmee Gateway Airport (16 nm S)
KSFB - Orlando Sanford International Airport (21 nm NE)
 
Loc | Ops | Rwys | IFR | FBO | Links
Com | Nav | Svcs | Stats | Notes


 
Area around 76FL (Health Central Heliport)
 
Road maps at: MapQuest Bing Google
 
Aerial photo
WARNING: Photo may not be current or correct
Aerial photo of 76FL (Health Central Heliport)
Photo by Don F. Pease
Photo taken 25-Mar-2007
looking south.

Do you have a better or more recent aerial photo of Health Central Heliport that you would like to share? If so, please send us your photo.

 
Sectional chart

 
Airport distance calculator
Flying to Health Central Heliport? Find the distance to fly.

From to 76FL

Sunrise and sunset
Times for 16-Feb-2020
 Local
(UTC-5)
 Zulu
(UTC)
Morning civil twilight06:4011:40
Sunrise07:0512:05
Sunset18:1623:16
Evening civil twilight18:4023:40

Current date and time
Zulu (UTC)  17-Feb-2020 01:08:07
Local (UTC-5)  16-Feb-2020 20:08:07
 
METAR
KORL 
10nm E 
170053Z 31007KT 10SM -RA FEW017 BKN045 OVC110 21/18 A3008 RMK AO2 RAB2359 SLP188 P0008 T02060183
KMCO 
13nm SE 
170053Z 28007KT 4SM R35L/4000VP6000FT RA BR SCT015 BKN035 OVC090 21/19 A3008 RMK AO2 RAE00B31 SLP183 P0000 T02110189
KISM 
17nm S 
170056Z 35003KT 10SM -RA OVC041 21/20 A3009 RMK AO2 RAE2359B29 SLP189 T02110200 PNO $
TAF
KMCO 
13nm SE 
162100Z 1621/1724 14010KT P6SM VCSH SCT040 BKN070 BKN250 FM162300 08007KT P6SM VCSH SCT035 BKN090 BKN250 TEMPO 1623/1702 3SM SHRA SCT020 BKN030 OVC060 FM170600 VRB03KT 6SM BR FEW015 SCT100 BKN200 TEMPO 1710/1714 3SM BR FEW004 BKN008 FM171500 VRB04KT P6SM BKN020 BKN040
KISM 
17nm S 
162000Z 1620/1718 15010KT P6SM VCSH SCT040 BKN070 FM162300 08007KT P6SM VCSH SCT035 BKN090 BKN250 TEMPO 1700/1703 3SM SHRA SCT020 BKN030 OVC060 FM170600 VRB03KT 6SM BR FEW008 SCT015 BKN200 TEMPO 1710/1714 3SM BR FEW004 BKN008 FM171500 VRB04KT P6SM BKN020 BKN040
NOTAMs
Click for the latest NOTAMs
NOTAMs are issued by the DoD/FAA and will open in a separate window not controlled by AirNav.

 

 
 

Would you like to see your business listed on this page?

 If your business provides an interesting product or service to pilots, flight crews, aircraft, or users of the Health Central Heliport, you should consider listing it here.  To start the listing process, click on the button below
 
Add a business
 

Other Pages about Health Central Heliport

Update a link
 
Copyright © AirNav, LLC. All rights reserved. Privacy Policy  Contact